sensor_id;sensor_type;location;lat;lon;timestamp;temperature;humidity
4637;DHT22;2331;48.806;9.140;2022-11-21T00:00:59;7.60;1.00
4637;DHT22;2331;48.806;9.140;2022-11-21T00:03:26;7.70;1.00
4637;DHT22;2331;48.806;9.140;2022-11-21T00:05:53;7.70;1.00
4637;DHT22;2331;48.806;9.140;2022-11-21T00:08:20;7.60;1.00
4637;DHT22;2331;48.806;9.140;2022-11-21T00:10:47;7.60;1.00
4637;DHT22;2331;48.806;9.140;2022-11-21T00:13:16;7.70;1.00
4637;DHT22;2331;48.806;9.140;2022-11-21T00:15:45;7.60;1.00
4637;DHT22;2331;48.806;9.140;2022-11-21T00:18:12;7.60;1.00
4637;DHT22;2331;48.806;9.140;2022-11-21T00:20:39;7.60;1.00
4637;DHT22;2331;48.806;9.140;2022-11-21T00:23:06;7.70;1.00
4637;DHT22;2331;48.806;9.140;2022-11-21T00:25:33;7.70;1.00
4637;DHT22;2331;48.806;9.140;2022-11-21T00:28:00;7.60;1.00
4637;DHT22;2331;48.806;9.140;2022-11-21T00:30:27;7.60;1.00
4637;DHT22;2331;48.806;9.140;2022-11-21T00:32:57;7.70;1.00
4637;DHT22;2331;48.806;9.140;2022-11-21T00:35:23;7.70;1.00
4637;DHT22;2331;48.806;9.140;2022-11-21T00:37:50;7.80;1.00
4637;DHT22;2331;48.806;9.140;2022-11-21T00:40:17;7.90;1.00
4637;DHT22;2331;48.806;9.140;2022-11-21T00:42:44;7.90;1.00
4637;DHT22;2331;48.806;9.140;2022-11-21T00:45:11;8.00;1.00
4637;DHT22;2331;48.806;9.140;2022-11-21T00:47:38;8.00;1.00
4637;DHT22;2331;48.806;9.140;2022-11-21T00:50:06;8.00;1.00
4637;DHT22;2331;48.806;9.140;2022-11-21T00:52:33;8.00;1.00
4637;DHT22;2331;48.806;9.140;2022-11-21T00:55:00;7.90;1.00
4637;DHT22;2331;48.806;9.140;2022-11-21T00:57:27;7.90;1.00
4637;DHT22;2331;48.806;9.140;2022-11-21T00:59:53;7.90;1.00
4637;DHT22;2331;48.806;9.140;2022-11-21T01:02:20;7.80;1.00
4637;DHT22;2331;48.806;9.140;2022-11-21T01:04:47;7.80;1.00
4637;DHT22;2331;48.806;9.140;2022-11-21T01:07:15;7.80;1.00
4637;DHT22;2331;48.806;9.140;2022-11-21T01:09:42;7.70;1.00
4637;DHT22;2331;48.806;9.140;2022-11-21T01:12:09;7.70;1.00
4637;DHT22;2331;48.806;9.140;2022-11-21T01:14:35;7.60;1.00
4637;DHT22;2331;48.806;9.140;2022-11-21T01:17:02;7.60;1.00
4637;DHT22;2331;48.806;9.140;2022-11-21T01:19:29;7.60;1.00
4637;DHT22;2331;48.806;9.140;2022-11-21T01:21:56;7.40;1.00
4637;DHT22;2331;48.806;9.140;2022-11-21T01:24:24;7.40;1.00
4637;DHT22;2331;48.806;9.140;2022-11-21T01:26:51;7.40;1.00
4637;DHT22;2331;48.806;9.140;2022-11-21T01:29:18;7.40;1.00
4637;DHT22;2331;48.806;9.140;2022-11-21T01:31:45;7.40;1.00
4637;DHT22;2331;48.806;9.140;2022-11-21T01:34:12;7.30;1.00
4637;DHT22;2331;48.806;9.140;2022-11-21T01:36:40;7.40;1.00
4637;DHT22;2331;48.806;9.140;2022-11-21T01:39:09;7.30;1.00
4637;DHT22;2331;48.806;9.140;2022-11-21T01:41:39;7.20;1.00
4637;DHT22;2331;48.806;9.140;2022-11-21T01:44:13;7.10;1.00
4637;DHT22;2331;48.806;9.140;2022-11-21T01:46:40;7.20;1.00
4637;DHT22;2331;48.806;9.140;2022-11-21T01:49:09;7.00;1.00
4637;DHT22;2331;48.806;9.140;2022-11-21T01:51:38;7.00;1.00
4637;DHT22;2331;48.806;9.140;2022-11-21T01:54:10;6.90;1.00
4637;DHT22;2331;48.806;9.140;2022-11-21T01:56:43;6.90;1.00
4637;DHT22;2331;48.806;9.140;2022-11-21T01:59:19;6.90;1.00
4637;DHT22;2331;48.806;9.140;2022-11-21T02:01:49;6.90;1.00
4637;DHT22;2331;48.806;9.140;2022-11-21T02:04:17;7.00;1.00
4637;DHT22;2331;48.806;9.140;2022-11-21T02:06:44;7.00;1.00
4637;DHT22;2331;48.806;9.140;2022-11-21T02:09:11;7.00;1.00
4637;DHT22;2331;48.806;9.140;2022-11-21T02:11:42;7.00;1.00
4637;DHT22;2331;48.806;9.140;2022-11-21T02:14:10;7.10;1.00
4637;DHT22;2331;48.806;9.140;2022-11-21T02:16:38;7.10;1.00
4637;DHT22;2331;48.806;9.140;2022-11-21T02:19:07;7.20;1.00
4637;DHT22;2331;48.806;9.140;2022-11-21T02:21:43;7.30;1.00
4637;DHT22;2331;48.806;9.140;2022-11-21T02:24:16;7.30;1.00
4637;DHT22;2331;48.806;9.140;2022-11-21T02:26:47;7.30;1.00
4637;DHT22;2331;48.806;9.140;2022-11-21T02:29:15;7.20;1.00
4637;DHT22;2331;48.806;9.140;2022-11-21T02:31:42;7.10;1.00
4637;DHT22;2331;48.806;9.140;2022-11-21T02:34:09;7.20;1.00
4637;DHT22;2331;48.806;9.140;2022-11-21T02:36:40;7.20;1.00
4637;DHT22;2331;48.806;9.140;2022-11-21T02:39:10;7.10;1.00
4637;DHT22;2331;48.806;9.140;2022-11-21T02:41:43;7.10;1.00
4637;DHT22;2331;48.806;9.140;2022-11-21T02:44:19;7.00;1.00
4637;DHT22;2331;48.806;9.140;2022-11-21T02:46:49;7.00;1.00
4637;DHT22;2331;48.806;9.140;2022-11-21T02:49:21;7.00;1.00
4637;DHT22;2331;48.806;9.140;2022-11-21T02:51:49;6.90;1.00
4637;DHT22;2331;48.806;9.140;2022-11-21T02:54:16;6.90;1.00
4637;DHT22;2331;48.806;9.140;2022-11-21T02:56:43;6.90;1.00
4637;DHT22;2331;48.806;9.140;2022-11-21T02:59:10;6.90;1.00
4637;DHT22;2331;48.806;9.140;2022-11-21T03:01:38;6.90;1.00
4637;DHT22;2331;48.806;9.140;2022-11-21T03:04:05;7.00;1.00
4637;DHT22;2331;48.806;9.140;2022-11-21T03:06:31;6.90;1.00
4637;DHT22;2331;48.806;9.140;2022-11-21T03:08:58;6.80;1.00
4637;DHT22;2331;48.806;9.140;2022-11-21T03:11:25;6.80;1.00
4637;DHT22;2331;48.806;9.140;2022-11-21T03:13:52;6.80;1.00
4637;DHT22;2331;48.806;9.140;2022-11-21T03:16:18;6.90;1.00
4637;DHT22;2331;48.806;9.140;2022-11-21T03:18:46;6.80;1.00
4637;DHT22;2331;48.806;9.140;2022-11-21T03:21:13;6.80;1.00
4637;DHT22;2331;48.806;9.140;2022-11-21T03:23:40;6.80;1.00
4637;DHT22;2331;48.806;9.140;2022-11-21T03:26:07;6.80;1.00
4637;DHT22;2331;48.806;9.140;2022-11-21T03:28:33;6.80;1.00
4637;DHT22;2331;48.806;9.140;2022-11-21T03:31:00;6.80;1.00
4637;DHT22;2331;48.806;9.140;2022-11-21T03:33:27;6.80;1.00
4637;DHT22;2331;48.806;9.140;2022-11-21T03:35:55;6.80;1.00
4637;DHT22;2331;48.806;9.140;2022-11-21T03:38:22;6.70;1.00
4637;DHT22;2331;48.806;9.140;2022-11-21T03:40:48;6.80;1.00
4637;DHT22;2331;48.806;9.140;2022-11-21T03:43:15;6.80;1.00
4637;DHT22;2331;48.806;9.140;2022-11-21T03:45:45;6.90;1.00
4637;DHT22;2331;48.806;9.140;2022-11-21T03:48:11;6.80;1.00
4637;DHT22;2331;48.806;9.140;2022-11-21T03:50:41;6.90;1.00
4637;DHT22;2331;48.806;9.140;2022-11-21T03:53:09;6.80;1.00
4637;DHT22;2331;48.806;9.140;2022-11-21T03:55:36;6.80;1.00
4637;DHT22;2331;48.806;9.140;2022-11-21T03:58:03;6.90;1.00
4637;DHT22;2331;48.806;9.140;2022-11-21T04:00:30;6.90;1.00
4637;DHT22;2331;48.806;9.140;2022-11-21T04:02:56;6.80;1.00
4637;DHT22;2331;48.806;9.140;2022-11-21T04:05:23;6.80;1.00
4637;DHT22;2331;48.806;9.140;2022-11-21T04:07:50;6.80;1.00
4637;DHT22;2331;48.806;9.140;2022-11-21T04:10:19;6.70;1.00
4637;DHT22;2331;48.806;9.140;2022-11-21T04:12:46;6.70;1.00
4637;DHT22;2331;48.806;9.140;2022-11-21T04:15:13;6.70;1.00
4637;DHT22;2331;48.806;9.140;2022-11-21T04:17:40;6.80;1.00
4637;DHT22;2331;48.806;9.140;2022-11-21T04:20:08;6.80;1.00
4637;DHT22;2331;48.806;9.140;2022-11-21T04:22:34;6.70;1.00
4637;DHT22;2331;48.806;9.140;2022-11-21T04:25:01;6.80;1.00
4637;DHT22;2331;48.806;9.140;2022-11-21T04:27:29;6.80;1.00
4637;DHT22;2331;48.806;9.140;2022-11-21T04:29:56;6.90;1.00
4637;DHT22;2331;48.806;9.140;2022-11-21T04:32:23;6.90;1.00
4637;DHT22;2331;48.806;9.140;2022-11-21T04:34:50;6.90;1.00
4637;DHT22;2331;48.806;9.140;2022-11-21T04:37:17;6.80;1.00
4637;DHT22;2331;48.806;9.140;2022-11-21T04:39:43;6.90;1.00
4637;DHT22;2331;48.806;9.140;2022-11-21T04:42:10;6.90;1.00
4637;DHT22;2331;48.806;9.140;2022-11-21T04:44:38;6.80;1.00
4637;DHT22;2331;48.806;9.140;2022-11-21T04:47:05;6.80;1.00
4637;DHT22;2331;48.806;9.140;2022-11-21T04:49:32;6.90;1.00
4637;DHT22;2331;48.806;9.140;2022-11-21T04:51:59;7.00;1.00
4637;DHT22;2331;48.806;9.140;2022-11-21T04:54:25;7.00;1.00
4637;DHT22;2331;48.806;9.140;2022-11-21T04:56:52;7.10;1.00
4637;DHT22;2331;48.806;9.140;2022-11-21T04:59:19;7.10;1.00
4637;DHT22;2331;48.806;9.140;2022-11-21T05:01:47;7.00;1.00
4637;DHT22;2331;48.806;9.140;2022-11-21T05:04:14;7.00;1.00
4637;DHT22;2331;48.806;9.140;2022-11-21T05:06:40;7.00;1.00
4637;DHT22;2331;48.806;9.140;2022-11-21T05:09:07;7.10;1.00
4637;DHT22;2331;48.806;9.140;2022-11-21T05:11:34;7.10;1.00
4637;DHT22;2331;48.806;9.140;2022-11-21T05:14:18;7.10;1.00
4637;DHT22;2331;48.806;9.140;2022-11-21T05:16:46;7.10;1.00
4637;DHT22;2331;48.806;9.140;2022-11-21T05:19:14;7.20;1.00
4637;DHT22;2331;48.806;9.140;2022-11-21T05:21:40;7.30;1.00
4637;DHT22;2331;48.806;9.140;2022-11-21T05:24:07;7.40;1.00
4637;DHT22;2331;48.806;9.140;2022-11-21T05:26:34;7.40;1.00
4637;DHT22;2331;48.806;9.140;2022-11-21T05:29:02;7.50;1.00
4637;DHT22;2331;48.806;9.140;2022-11-21T05:31:29;7.50;1.00
4637;DHT22;2331;48.806;9.140;2022-11-21T05:33:57;7.50;1.00
4637;DHT22;2331;48.806;9.140;2022-11-21T05:36:24;7.50;1.00
4637;DHT22;2331;48.806;9.140;2022-11-21T05:38:50;7.50;1.00
4637;DHT22;2331;48.806;9.140;2022-11-21T05:41:17;7.60;1.00
4637;DHT22;2331;48.806;9.140;2022-11-21T05:43:44;7.50;1.00
4637;DHT22;2331;48.806;9.140;2022-11-21T05:46:14;7.60;1.00
4637;DHT22;2331;48.806;9.140;2022-11-21T05:48:42;7.60;1.00
4637;DHT22;2331;48.806;9.140;2022-11-21T05:51:10;7.50;1.00
4637;DHT22;2331;48.806;9.140;2022-11-21T05:53:37;7.50;1.00
4637;DHT22;2331;48.806;9.140;2022-11-21T05:56:06;7.60;1.00
4637;DHT22;2331;48.806;9.140;2022-11-21T05:58:33;7.60;1.00
4637;DHT22;2331;48.806;9.140;2022-11-21T06:01:00;7.50;1.00
4637;DHT22;2331;48.806;9.140;2022-11-21T06:03:31;7.50;1.00
4637;DHT22;2331;48.806;9.140;2022-11-21T06:05:59;7.50;1.00
4637;DHT22;2331;48.806;9.140;2022-11-21T06:08:29;7.50;1.00
4637;DHT22;2331;48.806;9.140;2022-11-21T06:10:56;7.50;1.00
4637;DHT22;2331;48.806;9.140;2022-11-21T06:13:22;7.50;1.00
4637;DHT22;2331;48.806;9.140;2022-11-21T06:15:51;7.50;1.00
4637;DHT22;2331;48.806;9.140;2022-11-21T06:18:18;7.50;1.00
4637;DHT22;2331;48.806;9.140;2022-11-21T06:20:46;7.50;1.00
4637;DHT22;2331;48.806;9.140;2022-11-21T06:23:13;7.50;1.00
4637;DHT22;2331;48.806;9.140;2022-11-21T06:25:41;7.50;1.00
4637;DHT22;2331;48.806;9.140;2022-11-21T06:28:08;7.50;1.00
4637;DHT22;2331;48.806;9.140;2022-11-21T06:30:36;7.60;1.00
4637;DHT22;2331;48.806;9.140;2022-11-21T06:33:04;7.60;1.00
4637;DHT22;2331;48.806;9.140;2022-11-21T06:35:31;7.70;1.00
4637;DHT22;2331;48.806;9.140;2022-11-21T06:37:58;7.60;1.00
4637;DHT22;2331;48.806;9.140;2022-11-21T06:40:25;7.70;1.00
4637;DHT22;2331;48.806;9.140;2022-11-21T06:42:53;7.70;1.00
4637;DHT22;2331;48.806;9.140;2022-11-21T06:45:20;7.70;1.00
4637;DHT22;2331;48.806;9.140;2022-11-21T06:47:46;7.80;1.00
4637;DHT22;2331;48.806;9.140;2022-11-21T06:50:14;7.80;1.00
4637;DHT22;2331;48.806;9.140;2022-11-21T06:52:41;7.70;1.00
4637;DHT22;2331;48.806;9.140;2022-11-21T06:55:08;7.70;1.00
4637;DHT22;2331;48.806;9.140;2022-11-21T06:57:35;7.70;1.00
4637;DHT22;2331;48.806;9.140;2022-11-21T07:00:05;7.60;1.00
4637;DHT22;2331;48.806;9.140;2022-11-21T07:02:32;7.60;1.00
4637;DHT22;2331;48.806;9.140;2022-11-21T07:04:59;7.60;1.00
4637;DHT22;2331;48.806;9.140;2022-11-21T07:07:25;7.60;1.00
4637;DHT22;2331;48.806;9.140;2022-11-21T07:09:52;7.50;1.00
4637;DHT22;2331;48.806;9.140;2022-11-21T07:12:19;7.40;1.00
4637;DHT22;2331;48.806;9.140;2022-11-21T07:15:05;7.50;1.00
4637;DHT22;2331;48.806;9.140;2022-11-21T07:17:32;7.50;1.00
4637;DHT22;2331;48.806;9.140;2022-11-21T07:19:59;7.40;1.00
4637;DHT22;2331;48.806;9.140;2022-11-21T07:22:26;7.40;1.00
4637;DHT22;2331;48.806;9.140;2022-11-21T07:24:53;7.30;1.00
4637;DHT22;2331;48.806;9.140;2022-11-21T07:27:19;7.30;1.00
4637;DHT22;2331;48.806;9.140;2022-11-21T07:29:46;7.30;1.00
4637;DHT22;2331;48.806;9.140;2022-11-21T07:32:14;7.20;1.00
4637;DHT22;2331;48.806;9.140;2022-11-21T07:34:41;7.30;1.00
4637;DHT22;2331;48.806;9.140;2022-11-21T07:37:08;7.20;1.00
4637;DHT22;2331;48.806;9.140;2022-11-21T07:39:35;7.30;1.00
4637;DHT22;2331;48.806;9.140;2022-11-21T07:42:01;7.30;1.00
4637;DHT22;2331;48.806;9.140;2022-11-21T07:44:28;7.30;1.00
4637;DHT22;2331;48.806;9.140;2022-11-21T07:46:55;7.30;1.00
4637;DHT22;2331;48.806;9.140;2022-11-21T07:49:23;7.40;1.00
4637;DHT22;2331;48.806;9.140;2022-11-21T07:51:50;7.30;1.00
4637;DHT22;2331;48.806;9.140;2022-11-21T07:54:17;7.30;1.00
4637;DHT22;2331;48.806;9.140;2022-11-21T07:56:43;7.30;1.00
4637;DHT22;2331;48.806;9.140;2022-11-21T07:59:10;7.30;1.00
4637;DHT22;2331;48.806;9.140;2022-11-21T08:01:37;7.30;1.00
4637;DHT22;2331;48.806;9.140;2022-11-21T08:04:04;7.30;1.00
4637;DHT22;2331;48.806;9.140;2022-11-21T08:06:32;7.40;1.00
4637;DHT22;2331;48.806;9.140;2022-11-21T08:08:59;7.30;1.00
4637;DHT22;2331;48.806;9.140;2022-11-21T08:11:26;7.30;1.00
4637;DHT22;2331;48.806;9.140;2022-11-21T08:13:53;7.40;1.00
4637;DHT22;2331;48.806;9.140;2022-11-21T08:16:20;7.40;1.00
4637;DHT22;2331;48.806;9.140;2022-11-21T08:18:48;7.40;1.00
4637;DHT22;2331;48.806;9.140;2022-11-21T08:21:16;7.40;1.00
4637;DHT22;2331;48.806;9.140;2022-11-21T08:23:44;7.50;1.00
4637;DHT22;2331;48.806;9.140;2022-11-21T08:26:11;7.50;1.00
4637;DHT22;2331;48.806;9.140;2022-11-21T08:28:38;7.60;1.00
4637;DHT22;2331;48.806;9.140;2022-11-21T08:31:05;7.60;1.00
4637;DHT22;2331;48.806;9.140;2022-11-21T08:33:32;7.60;1.00
4637;DHT22;2331;48.806;9.140;2022-11-21T08:36:02;7.70;1.00
4637;DHT22;2331;48.806;9.140;2022-11-21T08:38:29;7.70;1.00
4637;DHT22;2331;48.806;9.140;2022-11-21T08:40:58;7.70;1.00
4637;DHT22;2331;48.806;9.140;2022-11-21T08:43:43;7.70;1.00
4637;DHT22;2331;48.806;9.140;2022-11-21T08:46:09;7.70;1.00
4637;DHT22;2331;48.806;9.140;2022-11-21T08:48:36;7.70;1.00
4637;DHT22;2331;48.806;9.140;2022-11-21T08:51:03;7.70;1.00
4637;DHT22;2331;48.806;9.140;2022-11-21T08:53:30;7.70;1.00
4637;DHT22;2331;48.806;9.140;2022-11-21T08:55:58;7.70;1.00
4637;DHT22;2331;48.806;9.140;2022-11-21T08:58:25;7.70;1.00
4637;DHT22;2331;48.806;9.140;2022-11-21T09:00:52;7.70;1.00
4637;DHT22;2331;48.806;9.140;2022-11-21T09:03:18;7.80;1.00
4637;DHT22;2331;48.806;9.140;2022-11-21T09:05:45;7.90;1.00
4637;DHT22;2331;48.806;9.140;2022-11-21T09:08:12;7.90;1.00
4637;DHT22;2331;48.806;9.140;2022-11-21T09:10:39;8.00;1.00
4637;DHT22;2331;48.806;9.140;2022-11-21T09:13:07;8.00;1.00
4637;DHT22;2331;48.806;9.140;2022-11-21T09:15:34;8.00;1.00
4637;DHT22;2331;48.806;9.140;2022-11-21T09:18:18;8.00;1.00
4637;DHT22;2331;48.806;9.140;2022-11-21T09:20:45;8.00;1.00
4637;DHT22;2331;48.806;9.140;2022-11-21T09:23:14;8.00;1.00
4637;DHT22;2331;48.806;9.140;2022-11-21T09:25:41;8.10;1.00
4637;DHT22;2331;48.806;9.140;2022-11-21T09:28:11;8.10;1.00
4637;DHT22;2331;48.806;9.140;2022-11-21T09:30:39;8.20;1.00
4637;DHT22;2331;48.806;9.140;2022-11-21T09:33:07;8.30;1.00
4637;DHT22;2331;48.806;9.140;2022-11-21T09:35:35;8.40;1.00
4637;DHT22;2331;48.806;9.140;2022-11-21T09:38:02;8.50;1.00
4637;DHT22;2331;48.806;9.140;2022-11-21T09:40:29;8.60;1.00
4637;DHT22;2331;48.806;9.140;2022-11-21T09:43:05;8.70;1.00
4637;DHT22;2331;48.806;9.140;2022-11-21T09:45:44;8.70;1.00
4637;DHT22;2331;48.806;9.140;2022-11-21T09:48:14;8.90;1.00
4637;DHT22;2331;48.806;9.140;2022-11-21T09:50:45;9.00;1.00
4637;DHT22;2331;48.806;9.140;2022-11-21T09:53:17;9.00;1.00
4637;DHT22;2331;48.806;9.140;2022-11-21T09:55:47;9.20;1.00
4637;DHT22;2331;48.806;9.140;2022-11-21T09:58:22;9.30;1.00
4637;DHT22;2331;48.806;9.140;2022-11-21T10:00:51;9.30;1.00
4637;DHT22;2331;48.806;9.140;2022-11-21T10:03:21;9.40;1.00
4637;DHT22;2331;48.806;9.140;2022-11-21T10:05:51;9.50;1.00
4637;DHT22;2331;48.806;9.140;2022-11-21T10:08:27;9.60;1.00
4637;DHT22;2331;48.806;9.140;2022-11-21T10:10:58;9.70;1.00
4637;DHT22;2331;48.806;9.140;2022-11-21T10:13:42;9.80;1.00
4637;DHT22;2331;48.806;9.140;2022-11-21T10:16:18;9.90;1.00
4637;DHT22;2331;48.806;9.140;2022-11-21T10:19:07;9.90;1.00
4637;DHT22;2331;48.806;9.140;2022-11-21T10:21:51;9.90;1.00
4637;DHT22;2331;48.806;9.140;2022-11-21T10:24:38;9.90;1.00
4637;DHT22;2331;48.806;9.140;2022-11-21T10:27:12;10.10;1.00
4637;DHT22;2331;48.806;9.140;2022-11-21T10:29:44;10.10;1.00
4637;DHT22;2331;48.806;9.140;2022-11-21T10:32:21;10.10;1.00
4637;DHT22;2331;48.806;9.140;2022-11-21T10:34:51;10.10;1.00
4637;DHT22;2331;48.806;9.140;2022-11-21T10:37:29;10.00;1.00
4637;DHT22;2331;48.806;9.140;2022-11-21T10:39:58;10.10;1.00
4637;DHT22;2331;48.806;9.140;2022-11-21T10:42:31;10.20;1.00
4637;DHT22;2331;48.806;9.140;2022-11-21T10:45:00;10.20;1.00
4637;DHT22;2331;48.806;9.140;2022-11-21T10:47:46;10.30;1.00
4637;DHT22;2331;48.806;9.140;2022-11-21T10:50:45;10.40;1.00
4637;DHT22;2331;48.806;9.140;2022-11-21T10:53:17;10.50;1.00
4637;DHT22;2331;48.806;9.140;2022-11-21T10:56:05;10.60;1.00
4637;DHT22;2331;48.806;9.140;2022-11-21T10:58:40;10.80;1.00
4637;DHT22;2331;48.806;9.140;2022-11-21T11:01:19;10.80;1.00
4637;DHT22;2331;48.806;9.140;2022-11-21T11:03:50;10.80;1.00
4637;DHT22;2331;48.806;9.140;2022-11-21T11:06:30;10.80;1.00
4637;DHT22;2331;48.806;9.140;2022-11-21T11:08:57;10.90;1.00
4637;DHT22;2331;48.806;9.140;2022-11-21T11:11:23;11.00;1.00
4637;DHT22;2331;48.806;9.140;2022-11-21T11:13:55;11.00;1.00
4637;DHT22;2331;48.806;9.140;2022-11-21T11:16:23;11.00;1.00
4637;DHT22;2331;48.806;9.140;2022-11-21T11:18:57;11.10;1.00
4637;DHT22;2331;48.806;9.140;2022-11-21T11:21:26;11.10;1.00
4637;DHT22;2331;48.806;9.140;2022-11-21T11:24:04;11.10;1.00
4637;DHT22;2331;48.806;9.140;2022-11-21T11:26:32;11.30;1.00
4637;DHT22;2331;48.806;9.140;2022-11-21T11:29:08;11.40;1.00
4637;DHT22;2331;48.806;9.140;2022-11-21T11:31:43;11.40;1.00
4637;DHT22;2331;48.806;9.140;2022-11-21T11:34:13;11.00;1.00
4637;DHT22;2331;48.806;9.140;2022-11-21T11:36:53;11.30;1.00
4637;DHT22;2331;48.806;9.140;2022-11-21T11:39:29;11.40;1.00
4637;DHT22;2331;48.806;9.140;2022-11-21T11:42:13;11.50;1.00
4637;DHT22;2331;48.806;9.140;2022-11-21T11:45:15;11.50;1.00
4637;DHT22;2331;48.806;9.140;2022-11-21T11:48:07;11.50;1.00
4637;DHT22;2331;48.806;9.140;2022-11-21T11:50:39;11.50;1.00
4637;DHT22;2331;48.806;9.140;2022-11-21T11:53:12;11.50;1.00
4637;DHT22;2331;48.806;9.140;2022-11-21T11:55:44;11.50;1.00
4637;DHT22;2331;48.806;9.140;2022-11-21T11:58:20;11.60;1.00
4637;DHT22;2331;48.806;9.140;2022-11-21T12:00:50;11.50;1.00
4637;DHT22;2331;48.806;9.140;2022-11-21T12:03:25;11.60;1.00
4637;DHT22;2331;48.806;9.140;2022-11-21T12:05:59;11.70;1.00
4637;DHT22;2331;48.806;9.140;2022-11-21T12:08:36;11.60;1.00
4637;DHT22;2331;48.806;9.140;2022-11-21T12:11:15;11.60;1.00
4637;DHT22;2331;48.806;9.140;2022-11-21T12:14:09;11.60;1.00
4637;DHT22;2331;48.806;9.140;2022-11-21T12:16:38;11.50;1.00
4637;DHT22;2331;48.806;9.140;2022-11-21T12:19:11;11.40;1.00
4637;DHT22;2331;48.806;9.140;2022-11-21T12:21:41;11.30;1.00
4637;DHT22;2331;48.806;9.140;2022-11-21T12:24:09;11.20;1.00
4637;DHT22;2331;48.806;9.140;2022-11-21T12:26:46;11.20;1.00
4637;DHT22;2331;48.806;9.140;2022-11-21T12:29:23;11.10;1.00
4637;DHT22;2331;48.806;9.140;2022-11-21T12:32:14;11.10;1.00
4637;DHT22;2331;48.806;9.140;2022-11-21T12:37:45;11.10;1.00
4637;DHT22;2331;48.806;9.140;2022-11-21T12:40:31;11.20;1.00
4637;DHT22;2331;48.806;9.140;2022-11-21T12:43:11;11.10;1.00
4637;DHT22;2331;48.806;9.140;2022-11-21T12:45:47;11.20;1.00
4637;DHT22;2331;48.806;9.140;2022-11-21T12:48:24;11.30;1.00
4637;DHT22;2331;48.806;9.140;2022-11-21T12:57:42;11.60;1.00
4637;DHT22;2331;48.806;9.140;2022-11-21T13:00:19;11.70;1.00
4637;DHT22;2331;48.806;9.140;2022-11-21T13:03:14;11.80;1.00
4637;DHT22;2331;48.806;9.140;2022-11-21T13:05:47;11.80;1.00
4637;DHT22;2331;48.806;9.140;2022-11-21T13:08:18;11.80;1.00
4637;DHT22;2331;48.806;9.140;2022-11-21T13:10:54;11.80;1.00
4637;DHT22;2331;48.806;9.140;2022-11-21T13:13:45;11.80;1.00
4637;DHT22;2331;48.806;9.140;2022-11-21T13:16:17;12.00;1.00
4637;DHT22;2331;48.806;9.140;2022-11-21T13:19:03;12.10;1.00
4637;DHT22;2331;48.806;9.140;2022-11-21T13:21:40;12.20;1.00
4637;DHT22;2331;48.806;9.140;2022-11-21T13:24:08;12.10;1.00
4637;DHT22;2331;48.806;9.140;2022-11-21T13:26:50;12.20;1.00
4637;DHT22;2331;48.806;9.140;2022-11-21T13:29:18;12.20;1.00
4637;DHT22;2331;48.806;9.140;2022-11-21T13:31:44;12.20;1.00
4637;DHT22;2331;48.806;9.140;2022-11-21T13:34:35;12.30;1.00
4637;DHT22;2331;48.806;9.140;2022-11-21T13:37:04;12.20;1.00
4637;DHT22;2331;48.806;9.140;2022-11-21T13:39:33;12.30;1.00
4637;DHT22;2331;48.806;9.140;2022-11-21T13:42:09;12.40;1.00
4637;DHT22;2331;48.806;9.140;2022-11-21T13:44:54;12.50;1.00
4637;DHT22;2331;48.806;9.140;2022-11-21T13:53:23;12.40;1.00
4637;DHT22;2331;48.806;9.140;2022-11-21T13:55:56;12.40;1.00
4637;DHT22;2331;48.806;9.140;2022-11-21T13:58:36;12.40;1.00
4637;DHT22;2331;48.806;9.140;2022-11-21T14:01:29;12.30;1.00
4637;DHT22;2331;48.806;9.140;2022-11-21T14:04:22;12.40;1.00
4637;DHT22;2331;48.806;9.140;2022-11-21T14:06:51;12.40;1.00
4637;DHT22;2331;48.806;9.140;2022-11-21T14:09:24;12.40;1.00
4637;DHT22;2331;48.806;9.140;2022-11-21T14:11:54;12.40;1.00
4637;DHT22;2331;48.806;9.140;2022-11-21T14:14:42;12.40;1.00
4637;DHT22;2331;48.806;9.140;2022-11-21T14:17:25;12.30;1.00
4637;DHT22;2331;48.806;9.140;2022-11-21T14:19:56;12.30;1.00
4637;DHT22;2331;48.806;9.140;2022-11-21T14:22:30;12.40;1.00
4637;DHT22;2331;48.806;9.140;2022-11-21T14:24:58;12.30;1.00
4637;DHT22;2331;48.806;9.140;2022-11-21T14:27:27;12.40;1.00
4637;DHT22;2331;48.806;9.140;2022-11-21T14:29:56;12.50;1.00
4637;DHT22;2331;48.806;9.140;2022-11-21T14:32:27;12.40;1.00
4637;DHT22;2331;48.806;9.140;2022-11-21T14:35:07;12.40;1.00
4637;DHT22;2331;48.806;9.140;2022-11-21T14:37:37;12.30;1.00
4637;DHT22;2331;48.806;9.140;2022-11-21T14:40:08;12.30;1.00
4637;DHT22;2331;48.806;9.140;2022-11-21T14:42:36;12.30;1.00
4637;DHT22;2331;48.806;9.140;2022-11-21T14:45:13;12.30;1.00
4637;DHT22;2331;48.806;9.140;2022-11-21T14:47:45;12.20;1.00
4637;DHT22;2331;48.806;9.140;2022-11-21T14:50:22;12.20;1.00
4637;DHT22;2331;48.806;9.140;2022-11-21T14:52:49;12.20;1.00
4637;DHT22;2331;48.806;9.140;2022-11-21T14:55:24;12.10;1.00
4637;DHT22;2331;48.806;9.140;2022-11-21T14:57:51;12.10;1.00
4637;DHT22;2331;48.806;9.140;2022-11-21T15:00:22;12.10;1.00
4637;DHT22;2331;48.806;9.140;2022-11-21T15:02:52;12.00;1.00
4637;DHT22;2331;48.806;9.140;2022-11-21T15:05:21;12.10;1.00
4637;DHT22;2331;48.806;9.140;2022-11-21T15:07:48;12.00;1.00
4637;DHT22;2331;48.806;9.140;2022-11-21T15:10:16;12.00;1.00
4637;DHT22;2331;48.806;9.140;2022-11-21T15:12:48;11.90;1.00
4637;DHT22;2331;48.806;9.140;2022-11-21T15:15:25;11.90;1.00
4637;DHT22;2331;48.806;9.140;2022-11-21T15:17:55;11.90;1.00
4637;DHT22;2331;48.806;9.140;2022-11-21T15:20:22;11.80;1.00
4637;DHT22;2331;48.806;9.140;2022-11-21T15:22:52;11.80;1.00
4637;DHT22;2331;48.806;9.140;2022-11-21T15:25:22;11.70;1.00
4637;DHT22;2331;48.806;9.140;2022-11-21T15:27:50;11.70;1.00
4637;DHT22;2331;48.806;9.140;2022-11-21T15:30:25;11.70;1.00
4637;DHT22;2331;48.806;9.140;2022-11-21T15:33:14;11.60;1.00
4637;DHT22;2331;48.806;9.140;2022-11-21T15:35:47;11.50;1.00
4637;DHT22;2331;48.806;9.140;2022-11-21T15:38:39;11.40;1.00
4637;DHT22;2331;48.806;9.140;2022-11-21T15:41:24;11.40;1.00
4637;DHT22;2331;48.806;9.140;2022-11-21T15:43:52;11.30;1.00
4637;DHT22;2331;48.806;9.140;2022-11-21T15:46:23;11.20;1.00
4637;DHT22;2331;48.806;9.140;2022-11-21T15:48:51;11.10;1.00
4637;DHT22;2331;48.806;9.140;2022-11-21T15:51:19;11.00;1.00
4637;DHT22;2331;48.806;9.140;2022-11-21T15:53:50;11.00;1.00
4637;DHT22;2331;48.806;9.140;2022-11-21T15:56:18;10.90;1.00
4637;DHT22;2331;48.806;9.140;2022-11-21T15:58:47;10.80;1.00
4637;DHT22;2331;48.806;9.140;2022-11-21T16:01:16;10.80;1.00
4637;DHT22;2331;48.806;9.140;2022-11-21T16:03:47;10.70;1.00
4637;DHT22;2331;48.806;9.140;2022-11-21T16:06:14;10.70;1.00
4637;DHT22;2331;48.806;9.140;2022-11-21T16:08:41;10.60;1.00
4637;DHT22;2331;48.806;9.140;2022-11-21T16:11:12;10.50;1.00
4637;DHT22;2331;48.806;9.140;2022-11-21T16:13:41;10.50;1.00
4637;DHT22;2331;48.806;9.140;2022-11-21T16:16:10;10.40;1.00
4637;DHT22;2331;48.806;9.140;2022-11-21T16:18:36;10.40;1.00
4637;DHT22;2331;48.806;9.140;2022-11-21T16:21:06;10.30;1.00
4637;DHT22;2331;48.806;9.140;2022-11-21T16:23:33;10.20;1.00
4637;DHT22;2331;48.806;9.140;2022-11-21T16:26:00;10.20;1.00
4637;DHT22;2331;48.806;9.140;2022-11-21T16:28:27;10.20;1.00
4637;DHT22;2331;48.806;9.140;2022-11-21T16:30:56;10.10;1.00
4637;DHT22;2331;48.806;9.140;2022-11-21T16:33:23;10.10;1.00
4637;DHT22;2331;48.806;9.140;2022-11-21T16:35:50;10.10;1.00
4637;DHT22;2331;48.806;9.140;2022-11-21T16:41:07;9.90;1.00
4637;DHT22;2331;48.806;9.140;2022-11-21T16:43:49;9.80;1.00
4637;DHT22;2331;48.806;9.140;2022-11-21T16:46:16;9.90;1.00
4637;DHT22;2331;48.806;9.140;2022-11-21T16:48:43;9.80;1.00
4637;DHT22;2331;48.806;9.140;2022-11-21T16:51:11;9.80;1.00
4637;DHT22;2331;48.806;9.140;2022-11-21T16:53:40;9.80;1.00
4637;DHT22;2331;48.806;9.140;2022-11-21T16:56:07;9.70;1.00
4637;DHT22;2331;48.806;9.140;2022-11-21T16:58:35;9.70;1.00
4637;DHT22;2331;48.806;9.140;2022-11-21T17:01:09;9.60;1.00
4637;DHT22;2331;48.806;9.140;2022-11-21T17:03:42;9.60;1.00
4637;DHT22;2331;48.806;9.140;2022-11-21T17:06:10;9.60;1.00
4637;DHT22;2331;48.806;9.140;2022-11-21T17:08:39;9.60;1.00